PWSweather.com
Personal Weather Stations
Station Observations
JOE4SPEED
Jupiter, Fl, Jupiter, FL 33458

Jupiter, FlJupiter, FL 33458

Lat: 26.9373, Lon: -80.1101

Elevation: 12

Station Type: Davis VP 2

http://www.joe4speed.com/wxindex.php

Latest ConditionsUpdated 7:20:01 PM EST Sunday, Nov 19, 2017
Currently Today's Max Today's Min Today's Average
Temperature 70.8°F21.6°C 82.9°F28.3°C 60.8°F16.0°C 72.5°F22.5°C
Dew Point 57.6°F14.2°C 61.8°F16.6°C 53.9°F12.2°C 59.1°F15.1°C
Winds Calm Calm 10.4 mph WSW16.7 kmh WSW - 2.9 mph 4.7 kmh
Wind Gusts -- 15.0 mph24.1 kmh - -
Humidity 63% 80% 48% 64%
Pressure 29.90 in1012.5 mb 29.97 in1014.9 mb 29.86 in1011.2 mb -
Hour Temp Dew Point Humidity Winds Wind Gusts Pressure Precip Precip Rate Daily Precip Total
07:20 PM 70.8°F21.6°C 57.6°F14.2°C 63% Calm Calm -- 29.90 in1012.5 mb - 0.00 in0.0 mm 0.00 in0.0 mm
07:10 PM 71.2°F21.8°C 57.9°F14.4°C 63% Calm Calm -- 29.90 in1012.5 mb - 0.00 in0.0 mm 0.00 in0.0 mm
07:00 PM 71.5°F21.9°C 57.8°F14.3°C 62% Calm Calm -- 29.90 in1012.5 mb - 0.00 in0.0 mm 0.00 in0.0 mm
06:50 PM 72.0°F22.2°C 57.8°F14.3°C 61% Calm Calm -- 29.90 in1012.5 mb - 0.00 in0.0 mm 0.00 in0.0 mm
06:40 PM 72.4°F22.4°C 58.2°F14.6°C 61% Calm Calm -- 29.90 in1012.5 mb - 0.00 in0.0 mm 0.00 in0.0 mm
06:30 PM 73.0°F22.8°C 58.3°F14.6°C 60% Calm Calm -- 29.89 in1012.2 mb - 0.00 in0.0 mm 0.00 in0.0 mm
06:20 PM 73.7°F23.2°C 58.5°F14.7°C 59% Calm Calm -- 29.89 in1012.2 mb - 0.00 in0.0 mm 0.00 in0.0 mm
06:10 PM 74.3°F23.5°C 58.6°F14.8°C 58% Calm Calm -- 29.89 in1012.2 mb - 0.00 in0.0 mm 0.00 in0.0 mm
06:00 PM 75.0°F23.9°C 58.3°F14.6°C 56% Calm Calm -- 29.89 in1012.2 mb - 0.00 in0.0 mm 0.00 in0.0 mm
05:50 PM 75.7°F24.3°C 58.4°F14.7°C 55% Calm Calm 1.2 mph1.9 kmh 29.89 in1012.2 mb - 0.00 in0.0 mm 0.00 in0.0 mm
05:40 PM 76.4°F24.7°C 58.5°F14.7°C 54% 1.2 mph WSW1.9 kmh WSW 2.3 mph3.7 kmh 29.89 in1012.2 mb - 0.00 in0.0 mm 0.00 in0.0 mm
05:30 PM 77.1°F25.1°C 58.6°F14.8°C 53% 1.2 mph WSW1.9 kmh WSW 3.5 mph5.6 kmh 29.88 in1011.9 mb - 0.00 in0.0 mm 0.00 in0.0 mm
05:20 PM 77.8°F25.4°C 59.3°F15.2°C 53% 2.3 mph WSW3.7 kmh WSW 3.5 mph5.6 kmh 29.88 in1011.9 mb - 0.00 in0.0 mm 0.00 in0.0 mm
05:10 PM 78.6°F25.9°C 59.5°F15.3°C 52% 2.3 mph WSW3.7 kmh WSW 3.5 mph5.6 kmh 29.88 in1011.9 mb - 0.00 in0.0 mm 0.00 in0.0 mm
05:00 PM 78.9°F26.1°C 59.2°F15.1°C 51% 3.5 mph W5.6 kmh W 3.5 mph5.6 kmh 29.88 in1011.9 mb - 0.00 in0.0 mm 0.00 in0.0 mm
04:50 PM 79.2°F26.2°C 59.6°F15.3°C 51% 3.5 mph WNW5.6 kmh WNW 5.8 mph9.3 kmh 29.87 in1011.5 mb - 0.00 in0.0 mm 0.00 in0.0 mm
04:40 PM 79.7°F26.5°C 60.0°F15.6°C 51% 4.6 mph NW7.4 kmh NW 4.6 mph7.4 kmh 29.87 in1011.5 mb - 0.00 in0.0 mm 0.00 in0.0 mm
04:30 PM 80.2°F26.8°C 60.4°F15.8°C 51% 3.5 mph WSW5.6 kmh WSW 5.8 mph9.3 kmh 29.87 in1011.5 mb - 0.00 in0.0 mm 0.00 in0.0 mm
04:20 PM 80.4°F26.9°C 60.6°F15.9°C 51% 6.9 mph W11.1 kmh W 6.9 mph11.1 kmh 29.87 in1011.5 mb - 0.00 in0.0 mm 0.00 in0.0 mm
04:10 PM 81.4°F27.4°C 61.0°F16.1°C 50% 5.8 mph WNW9.3 kmh WNW 9.2 mph14.8 kmh 29.87 in1011.5 mb - 0.00 in0.0 mm 0.00 in0.0 mm
04:00 PM 81.3°F27.4°C 60.9°F16.1°C 50% 8.1 mph WNW13.0 kmh WNW 11.5 mph18.5 kmh 29.86 in1011.2 mb - 0.00 in0.0 mm 0.00 in0.0 mm
03:50 PM 81.7°F27.6°C 61.2°F16.2°C 50% 8.1 mph WNW13.0 kmh WNW 12.7 mph20.4 kmh 29.86 in1011.2 mb - 0.00 in0.0 mm 0.00 in0.0 mm
03:40 PM 81.2°F27.3°C 60.8°F16.0°C 50% 5.8 mph W9.3 kmh W 8.1 mph13.0 kmh 29.86 in1011.2 mb - 0.00 in0.0 mm 0.00 in0.0 mm
03:30 PM 81.9°F27.7°C 61.4°F16.3°C 50% 5.8 mph W9.3 kmh W 8.1 mph13.0 kmh 29.86 in1011.2 mb - 0.00 in0.0 mm 0.00 in0.0 mm
03:20 PM 81.2°F27.3°C 60.8°F16.0°C 50% 6.9 mph WSW11.1 kmh WSW 11.5 mph18.5 kmh 29.86 in1011.2 mb - 0.00 in0.0 mm 0.00 in0.0 mm
03:10 PM 82.0°F27.8°C 61.0°F16.1°C 49% 5.8 mph WSW9.3 kmh WSW 8.1 mph13.0 kmh 29.86 in1011.2 mb - 0.00 in0.0 mm 0.00 in0.0 mm
03:00 PM 81.3°F27.4°C 60.9°F16.1°C 50% 5.8 mph WNW9.3 kmh WNW 8.1 mph13.0 kmh 29.87 in1011.5 mb - 0.00 in0.0 mm 0.00 in0.0 mm
02:50 PM 82.5°F28.1°C 60.8°F16.0°C 48% 6.9 mph WSW11.1 kmh WSW 10.4 mph16.7 kmh 29.87 in1011.5 mb - 0.00 in0.0 mm 0.00 in0.0 mm
02:40 PM 82.2°F27.9°C 60.6°F15.9°C 48% 5.8 mph WSW9.3 kmh WSW 8.1 mph13.0 kmh 29.87 in1011.5 mb - 0.00 in0.0 mm 0.00 in0.0 mm
02:30 PM 82.4°F28.0°C 61.3°F16.3°C 49% 8.1 mph WNW13.0 kmh WNW 11.5 mph18.5 kmh 29.87 in1011.5 mb - 0.00 in0.0 mm 0.00 in0.0 mm
02:20 PM 82.3°F27.9°C 60.6°F15.9°C 48% 6.9 mph WSW11.1 kmh WSW 15.0 mph24.1 kmh 29.87 in1011.5 mb - 0.00 in0.0 mm 0.00 in0.0 mm
02:10 PM 82.5°F28.1°C 60.8°F16.0°C 48% 6.9 mph WSW11.1 kmh WSW 11.5 mph18.5 kmh 29.87 in1011.5 mb - 0.00 in0.0 mm 0.00 in0.0 mm
02:00 PM 82.0°F27.8°C 60.4°F15.8°C 48% 4.6 mph WSW7.4 kmh WSW 11.5 mph18.5 kmh 29.87 in1011.5 mb - 0.00 in0.0 mm 0.00 in0.0 mm
01:50 PM 81.7°F27.6°C 60.1°F15.6°C 48% 9.2 mph WSW14.8 kmh WSW 12.7 mph20.4 kmh 29.87 in1011.5 mb - 0.00 in0.0 mm 0.00 in0.0 mm
01:40 PM 81.6°F27.6°C 60.6°F15.9°C 49% 10.4 mph WSW16.7 kmh WSW 11.5 mph18.5 kmh 29.88 in1011.9 mb - 0.00 in0.0 mm 0.00 in0.0 mm
01:30 PM 82.4°F28.0°C 61.3°F16.3°C 49% 8.1 mph SW13.0 kmh SW 12.7 mph20.4 kmh 29.88 in1011.9 mb - 0.00 in0.0 mm 0.00 in0.0 mm
01:20 PM 82.1°F27.8°C 61.6°F16.4°C 50% 6.9 mph WSW11.1 kmh WSW 10.4 mph16.7 kmh 29.89 in1012.2 mb - 0.00 in0.0 mm 0.00 in0.0 mm
01:10 PM 82.6°F28.1°C 61.5°F16.4°C 49% 8.1 mph W13.0 kmh W 9.2 mph14.8 kmh 29.89 in1012.2 mb - 0.00 in0.0 mm 0.00 in0.0 mm
01:00 PM 82.9°F28.3°C 61.8°F16.6°C 49% 6.9 mph NW11.1 kmh NW 9.2 mph14.8 kmh 29.89 in1012.2 mb - 0.00 in0.0 mm 0.00 in0.0 mm
12:50 PM 81.6°F27.6°C 60.6°F15.9°C 49% 6.9 mph WNW11.1 kmh WNW 11.5 mph18.5 kmh 29.89 in1012.2 mb - 0.00 in0.0 mm 0.00 in0.0 mm
12:40 PM 81.8°F27.7°C 60.8°F16.0°C 49% 5.8 mph SW9.3 kmh SW 11.5 mph18.5 kmh 29.90 in1012.5 mb - 0.00 in0.0 mm 0.00 in0.0 mm
12:30 PM 81.2°F27.3°C 60.2°F15.7°C 49% 5.8 mph SW9.3 kmh SW 8.1 mph13.0 kmh 29.90 in1012.5 mb - 0.00 in0.0 mm 0.00 in0.0 mm
12:20 PM 81.7°F27.6°C 61.8°F16.6°C 51% 5.8 mph WNW9.3 kmh WNW 9.2 mph14.8 kmh 29.91 in1012.9 mb - 0.00 in0.0 mm 0.00 in0.0 mm
12:10 PM 81.5°F27.5°C 61.1°F16.2°C 50% 4.6 mph W7.4 kmh W 3.5 mph5.6 kmh 29.91 in1012.9 mb - 0.00 in0.0 mm 0.00 in0.0 mm
12:00 PM 81.6°F27.6°C 61.2°F16.2°C 50% 4.6 mph WNW7.4 kmh WNW 9.2 mph14.8 kmh 29.92 in1013.2 mb - 0.00 in0.0 mm 0.00 in0.0 mm
11:50 AM 81.6°F27.6°C 61.2°F16.2°C 50% 5.8 mph WSW9.3 kmh WSW 8.1 mph13.0 kmh 29.92 in1013.2 mb - 0.00 in0.0 mm 0.00 in0.0 mm
11:40 AM 80.6°F27.0°C 60.3°F15.7°C 50% 6.9 mph WSW11.1 kmh WSW 6.9 mph11.1 kmh 29.93 in1013.5 mb - 0.00 in0.0 mm 0.00 in0.0 mm
11:30 AM 80.1°F26.7°C 59.8°F15.4°C 50% 4.6 mph WSW7.4 kmh WSW 6.9 mph11.1 kmh 29.93 in1013.5 mb - 0.00 in0.0 mm 0.00 in0.0 mm
11:20 AM 80.0°F26.7°C 60.3°F15.7°C 51% 6.9 mph W11.1 kmh W 11.5 mph18.5 kmh 29.94 in1013.9 mb - 0.00 in0.0 mm 0.00 in0.0 mm
11:10 AM 80.2°F26.8°C 60.4°F15.8°C 51% 3.5 mph W5.6 kmh W 4.6 mph7.4 kmh 29.94 in1013.9 mb - 0.00 in0.0 mm 0.00 in0.0 mm
11:00 AM 79.7°F26.5°C 59.4°F15.2°C 50% 4.6 mph W7.4 kmh W 9.2 mph14.8 kmh 29.95 in1014.2 mb - 0.00 in0.0 mm 0.00 in0.0 mm
10:50 AM 78.8°F26.0°C 59.1°F15.1°C 51% 8.1 mph WSW13.0 kmh WSW 10.4 mph16.7 kmh 29.95 in1014.2 mb - 0.00 in0.0 mm 0.00 in0.0 mm
10:40 AM 78.4°F25.8°C 58.7°F14.8°C 51% 5.8 mph W9.3 kmh W 8.1 mph13.0 kmh 29.96 in1014.6 mb - 0.00 in0.0 mm 0.00 in0.0 mm
10:30 AM 77.8°F25.4°C 58.8°F14.9°C 52% 3.5 mph WSW5.6 kmh WSW 5.8 mph9.3 kmh 29.96 in1014.6 mb - 0.00 in0.0 mm 0.00 in0.0 mm
10:20 AM 77.9°F25.5°C 58.9°F14.9°C 52% 5.8 mph W9.3 kmh W 6.9 mph11.1 kmh 29.96 in1014.6 mb - 0.00 in0.0 mm 0.00 in0.0 mm
10:10 AM 77.5°F25.3°C 58.5°F14.7°C 52% 4.6 mph WSW7.4 kmh WSW 4.6 mph7.4 kmh 29.96 in1014.6 mb - 0.00 in0.0 mm 0.00 in0.0 mm
10:00 AM 76.7°F24.8°C 57.7°F14.3°C 52% 4.6 mph WSW7.4 kmh WSW 10.4 mph16.7 kmh 29.96 in1014.6 mb - 0.00 in0.0 mm 0.00 in0.0 mm
09:50 AM 75.8°F24.3°C 58.0°F14.4°C 54% 3.5 mph WSW5.6 kmh WSW 3.5 mph5.6 kmh 29.96 in1014.6 mb - 0.00 in0.0 mm 0.00 in0.0 mm
09:40 AM 76.0°F24.4°C 58.7°F14.8°C 55% 3.5 mph WSW5.6 kmh WSW 3.5 mph5.6 kmh 29.97 in1014.9 mb - 0.00 in0.0 mm 0.00 in0.0 mm
09:30 AM 75.1°F23.9°C 58.8°F14.9°C 57% 3.5 mph WSW5.6 kmh WSW 4.6 mph7.4 kmh 29.97 in1014.9 mb - 0.00 in0.0 mm 0.00 in0.0 mm
09:20 AM 74.0°F23.3°C 59.7°F15.4°C 61% 3.5 mph WSW5.6 kmh WSW 4.6 mph7.4 kmh 29.96 in1014.6 mb - 0.00 in0.0 mm 0.00 in0.0 mm
09:10 AM 73.8°F23.2°C 59.5°F15.3°C 61% 3.5 mph SW5.6 kmh SW 3.5 mph5.6 kmh 29.96 in1014.6 mb - 0.00 in0.0 mm 0.00 in0.0 mm
09:00 AM 72.8°F22.7°C 59.0°F15.0°C 62% 2.3 mph NW3.7 kmh NW 4.6 mph7.4 kmh 29.96 in1014.6 mb - 0.00 in0.0 mm 0.00 in0.0 mm
08:50 AM 72.0°F22.2°C 58.8°F14.9°C 63% 2.3 mph WSW3.7 kmh WSW 3.5 mph5.6 kmh 29.96 in1014.6 mb - 0.00 in0.0 mm 0.00 in0.0 mm
08:40 AM 70.9°F21.6°C 58.1°F14.5°C 64% 2.3 mph WNW3.7 kmh WNW 3.5 mph5.6 kmh 29.96 in1014.6 mb - 0.00 in0.0 mm 0.00 in0.0 mm
08:30 AM 69.7°F20.9°C 57.8°F14.3°C 66% 2.3 mph W3.7 kmh W 4.6 mph7.4 kmh 29.96 in1014.6 mb - 0.00 in0.0 mm 0.00 in0.0 mm
08:20 AM 68.7°F20.4°C 57.7°F14.3°C 68% 3.5 mph NW5.6 kmh NW 4.6 mph7.4 kmh 29.96 in1014.6 mb - 0.00 in0.0 mm 0.00 in0.0 mm
08:10 AM 67.3°F19.6°C 58.4°F14.7°C 73% 2.3 mph WNW3.7 kmh WNW 3.5 mph5.6 kmh 29.96 in1014.6 mb - 0.00 in0.0 mm 0.00 in0.0 mm
08:00 AM 65.0°F18.3°C 58.4°F14.7°C 79% 2.3 mph WNW3.7 kmh WNW 3.5 mph5.6 kmh 29.96 in1014.6 mb - 0.00 in0.0 mm 0.00 in0.0 mm
07:50 AM 63.3°F17.4°C 57.1°F13.9°C 80% 1.2 mph WNW1.9 kmh WNW 4.6 mph7.4 kmh 29.95 in1014.2 mb - 0.00 in0.0 mm 0.00 in0.0 mm
07:40 AM 62.1°F16.7°C 55.8°F13.2°C 80% Calm Calm -- 29.95 in1014.2 mb - 0.00 in0.0 mm 0.00 in0.0 mm
07:30 AM 61.2°F16.2°C 54.6°F12.6°C 79% Calm Calm -- 29.95 in1014.2 mb - 0.00 in0.0 mm 0.00 in0.0 mm
07:20 AM 60.9°F16.1°C 54.3°F12.4°C 79% Calm Calm -- 29.95 in1014.2 mb - 0.00 in0.0 mm 0.00 in0.0 mm
07:10 AM 60.8°F16.0°C 54.2°F12.3°C 79% Calm Calm -- 29.95 in1014.2 mb - 0.00 in0.0 mm 0.00 in0.0 mm
07:00 AM 60.8°F16.0°C 53.9°F12.2°C 78% Calm Calm -- 29.95 in1014.2 mb - 0.00 in0.0 mm 0.00 in0.0 mm
06:50 AM 61.1°F16.2°C 54.2°F12.3°C 78% Calm Calm -- 29.95 in1014.2 mb - 0.00 in0.0 mm 0.00 in0.0 mm
06:40 AM 61.4°F16.3°C 54.5°F12.5°C 78% Calm Calm -- 29.95 in1014.2 mb - 0.00 in0.0 mm 0.00 in0.0 mm
06:30 AM 61.7°F16.5°C 54.8°F12.7°C 78% Calm Calm -- 29.94 in1013.9 mb - 0.00 in0.0 mm 0.00 in0.0 mm
06:20 AM 61.9°F16.6°C 55.0°F12.8°C 78% Calm Calm -- 29.94 in1013.9 mb - 0.00 in0.0 mm 0.00 in0.0 mm
06:10 AM 62.1°F16.7°C 55.2°F12.9°C 78% Calm Calm -- 29.94 in1013.9 mb - 0.00 in0.0 mm 0.00 in0.0 mm
06:00 AM 62.4°F16.9°C 55.4°F13.0°C 78% Calm Calm -- 29.94 in1013.9 mb - 0.00 in0.0 mm 0.00 in0.0 mm
05:50 AM 62.7°F17.1°C 56.1°F13.4°C 79% Calm Calm -- 29.94 in1013.9 mb - 0.00 in0.0 mm 0.00 in0.0 mm
05:40 AM 62.8°F17.1°C 56.2°F13.4°C 79% 1.2 mph NNW1.9 kmh NNW 2.3 mph3.7 kmh 29.94 in1013.9 mb - 0.00 in0.0 mm 0.00 in0.0 mm
05:30 AM 62.8°F17.1°C 56.2°F13.4°C 79% 3.5 mph WNW5.6 kmh WNW 3.5 mph5.6 kmh 29.94 in1013.9 mb - 0.00 in0.0 mm 0.00 in0.0 mm
05:20 AM 62.8°F17.1°C 56.5°F13.6°C 80% 2.3 mph NW3.7 kmh NW 3.5 mph5.6 kmh 29.94 in1013.9 mb - 0.00 in0.0 mm 0.00 in0.0 mm
05:10 AM 62.8°F17.1°C 56.6°F13.7°C 80% 2.3 mph NW3.7 kmh NW 4.6 mph7.4 kmh 29.93 in1013.5 mb - 0.00 in0.0 mm 0.00 in0.0 mm
05:00 AM 63.0°F17.2°C 56.7°F13.7°C 80% 3.5 mph NW5.6 kmh NW 3.5 mph5.6 kmh 29.93 in1013.5 mb - 0.00 in0.0 mm 0.00 in0.0 mm
04:50 AM 63.2°F17.3°C 56.9°F13.8°C 80% Calm Calm -- 29.93 in1013.5 mb - 0.00 in0.0 mm 0.00 in0.0 mm
04:40 AM 63.4°F17.4°C 57.1°F13.9°C 80% 2.3 mph WNW3.7 kmh WNW 3.5 mph5.6 kmh 29.93 in1013.5 mb - 0.00 in0.0 mm 0.00 in0.0 mm
04:30 AM 63.7°F17.6°C 57.4°F14.1°C 80% 1.2 mph WNW1.9 kmh WNW 2.3 mph3.7 kmh 29.93 in1013.5 mb - 0.00 in0.0 mm 0.00 in0.0 mm
04:20 AM 63.9°F17.7°C 57.6°F14.2°C 80% 2.3 mph WNW3.7 kmh WNW 2.3 mph3.7 kmh 29.93 in1013.5 mb - 0.00 in0.0 mm 0.00 in0.0 mm
04:10 AM 64.1°F17.8°C 57.8°F14.3°C 80% 1.2 mph W1.9 kmh W 3.5 mph5.6 kmh 29.93 in1013.5 mb - 0.00 in0.0 mm 0.00 in0.0 mm
04:00 AM 64.5°F18.1°C 58.2°F14.6°C 80% Calm Calm -- 29.93 in1013.5 mb - 0.00 in0.0 mm 0.00 in0.0 mm
03:50 AM 64.8°F18.2°C 58.5°F14.7°C 80% Calm Calm -- 29.93 in1013.5 mb - 0.00 in0.0 mm 0.00 in0.0 mm
03:40 AM 65.0°F18.3°C 58.7°F14.8°C 80% Calm Calm -- 29.93 in1013.5 mb - 0.00 in0.0 mm 0.00 in0.0 mm
03:30 AM 65.2°F18.4°C 58.9°F14.9°C 80% 1.2 mph WSW1.9 kmh WSW 2.3 mph3.7 kmh 29.93 in1013.5 mb - 0.00 in0.0 mm 0.00 in0.0 mm
03:20 AM 65.4°F18.6°C 59.1°F15.1°C 80% Calm Calm 1.2 mph1.9 kmh 29.93 in1013.5 mb - 0.00 in0.0 mm 0.00 in0.0 mm
03:10 AM 65.7°F18.7°C 59.0°F15.0°C 79% 1.2 mph WSW1.9 kmh WSW 2.3 mph3.7 kmh 29.93 in1013.5 mb - 0.00 in0.0 mm 0.00 in0.0 mm
03:00 AM 66.0°F18.9°C 59.3°F15.2°C 79% 1.2 mph WSW1.9 kmh WSW 2.3 mph3.7 kmh 29.93 in1013.5 mb - 0.00 in0.0 mm 0.00 in0.0 mm
02:50 AM 66.2°F19.0°C 59.5°F15.3°C 79% 1.2 mph WSW1.9 kmh WSW 2.3 mph3.7 kmh 29.93 in1013.5 mb - 0.00 in0.0 mm 0.00 in0.0 mm
02:40 AM 66.3°F19.1°C 59.6°F15.3°C 79% 1.2 mph WSW1.9 kmh WSW 2.3 mph3.7 kmh 29.93 in1013.5 mb - 0.00 in0.0 mm 0.00 in0.0 mm
02:30 AM 66.6°F19.2°C 59.9°F15.5°C 79% 1.2 mph WSW1.9 kmh WSW 2.3 mph3.7 kmh 29.93 in1013.5 mb - 0.00 in0.0 mm 0.00 in0.0 mm
02:20 AM 66.7°F19.3°C 60.0°F15.6°C 79% 2.3 mph WSW3.7 kmh WSW 3.5 mph5.6 kmh 29.93 in1013.5 mb - 0.00 in0.0 mm 0.00 in0.0 mm
02:10 AM 66.9°F19.4°C 60.2°F15.7°C 79% 2.3 mph WSW3.7 kmh WSW 3.5 mph5.6 kmh 29.93 in1013.5 mb - 0.00 in0.0 mm 0.00 in0.0 mm
02:00 AM 67.0°F19.4°C 60.3°F15.7°C 79% 2.3 mph WSW3.7 kmh WSW 3.5 mph5.6 kmh 29.94 in1013.9 mb - 0.00 in0.0 mm 0.00 in0.0 mm
01:50 AM 67.2°F19.6°C 60.5°F15.8°C 79% Calm Calm -- 29.93 in1013.5 mb - 0.00 in0.0 mm 0.00 in0.0 mm
01:40 AM 67.4°F19.7°C 60.7°F15.9°C 79% 3.5 mph W5.6 kmh W 3.5 mph5.6 kmh 29.93 in1013.5 mb - 0.00 in0.0 mm 0.00 in0.0 mm
01:30 AM 67.6°F19.8°C 60.9°F16.1°C 79% 2.3 mph W3.7 kmh W 3.5 mph5.6 kmh 29.94 in1013.9 mb - 0.00 in0.0 mm 0.00 in0.0 mm
01:20 AM 67.8°F19.9°C 61.1°F16.2°C 79% Calm Calm -- 29.94 in1013.9 mb - 0.00 in0.0 mm 0.00 in0.0 mm
01:10 AM 68.2°F20.1°C 61.4°F16.3°C 79% Calm Calm -- 29.94 in1013.9 mb - 0.00 in0.0 mm 0.00 in0.0 mm
01:00 AM 68.4°F20.2°C 61.6°F16.4°C 79% Calm Calm -- 29.94 in1013.9 mb - 0.00 in0.0 mm 0.00 in0.0 mm
12:50 AM 68.5°F20.3°C 61.7°F16.5°C 79% Calm Calm -- 29.94 in1013.9 mb - 0.00 in0.0 mm 0.00 in0.0 mm
12:40 AM 68.5°F20.3°C 61.7°F16.5°C 79% Calm Calm -- 29.94 in1013.9 mb - 0.00 in0.0 mm 0.00 in0.0 mm
12:30 AM 68.5°F20.3°C 61.7°F16.5°C 79% Calm Calm -- 29.94 in1013.9 mb - 0.00 in0.0 mm 0.00 in0.0 mm
12:20 AM 68.5°F20.3°C 61.7°F16.5°C 79% Calm Calm -- 29.94 in1013.9 mb - 0.00 in0.0 mm 0.00 in0.0 mm
12:10 AM 68.4°F20.2°C 61.6°F16.4°C 79% Calm Calm -- 29.95 in1014.2 mb - 0.00 in0.0 mm 0.00 in0.0 mm
12:00 AM 68.2°F20.1°C 61.1°F16.2°C 78% Calm Calm -- 29.95 in1014.2 mb - 0.00 in0.0 mm 0.00 in0.0 mm